createdAt,value
2024-01-05T00:00:39.474Z,1.20
2024-01-05T00:01:43.590Z,1.10
2024-01-05T00:02:44.878Z,1.00
2024-01-05T00:03:46.921Z,0.87
2024-01-05T00:04:48.301Z,1.20
2024-01-05T00:05:49.822Z,1.10
2024-01-05T00:06:51.313Z,0.93
2024-01-05T00:07:53.844Z,1.40
2024-01-05T00:08:55.203Z,1.20
2024-01-05T00:09:57.324Z,1.30
2024-01-05T00:10:58.694Z,1.10
2024-01-05T00:12:01.688Z,1.10
2024-01-05T00:13:04.174Z,1.20
2024-01-05T00:14:05.543Z,1.10
2024-01-05T00:15:07.374Z,0.90
2024-01-05T00:16:18.997Z,1.47
2024-01-05T00:17:20.329Z,1.10
2024-01-05T00:18:21.830Z,1.17
2024-01-05T00:19:23.454Z,1.13
2024-01-05T00:20:25.058Z,1.03
2024-01-05T00:21:28.305Z,1.10
2024-01-05T00:22:29.630Z,0.90
2024-01-05T00:23:31.027Z,1.10
2024-01-05T00:24:32.740Z,1.63
2024-01-05T00:25:34.156Z,1.00
2024-01-05T00:26:40.712Z,0.80
2024-01-05T00:27:42.754Z,1.03
2024-01-05T00:28:45.187Z,0.90
2024-01-05T00:29:46.658Z,0.80
2024-01-05T00:30:48.202Z,1.00
2024-01-05T00:31:49.553Z,1.30
2024-01-05T00:32:51.159Z,1.10
2024-01-05T00:33:52.867Z,0.90
2024-01-05T00:34:54.670Z,0.90
2024-01-05T00:35:57.045Z,1.13
2024-01-05T00:36:58.426Z,0.77
2024-01-05T00:37:59.731Z,1.00
2024-01-05T00:39:01.117Z,2.13
2024-01-05T00:40:03.810Z,1.20
2024-01-05T00:41:06.049Z,0.90
2024-01-05T00:42:08.035Z,1.37
2024-01-05T00:43:09.377Z,0.93
2024-01-05T00:44:10.961Z,1.00
2024-01-05T00:45:12.686Z,1.00
2024-01-05T00:46:20.547Z,1.47
2024-01-05T00:47:21.994Z,1.13
2024-01-05T00:48:23.809Z,1.10
2024-01-05T00:49:26.135Z,1.00
2024-01-05T00:50:27.530Z,1.10
2024-01-05T00:51:29.102Z,0.90
2024-01-05T00:52:30.534Z,1.30
2024-01-05T00:53:31.821Z,0.90
2024-01-05T00:54:34.014Z,1.10
2024-01-05T00:55:35.471Z,1.40
2024-01-05T00:56:37.030Z,1.10
2024-01-05T00:57:38.696Z,1.10
2024-01-05T00:58:40.151Z,1.30
2024-01-05T00:59:41.733Z,0.90
2024-01-05T01:00:43.149Z,1.40
2024-01-05T01:01:44.613Z,1.10
2024-01-05T01:02:45.993Z,1.40
2024-01-05T01:03:47.777Z,1.10
2024-01-05T01:04:49.585Z,1.00
2024-01-05T01:05:51.252Z,1.43
2024-01-05T01:06:52.600Z,1.20
2024-01-05T01:07:54.308Z,1.00
2024-01-05T01:08:55.721Z,1.20
2024-01-05T01:09:57.514Z,0.90
2024-01-05T01:10:58.839Z,1.10
2024-01-05T01:12:00.427Z,1.33
2024-01-05T01:13:02.829Z,1.27
2024-01-05T01:14:04.493Z,1.20
2024-01-05T01:15:06.437Z,1.10
2024-01-05T01:16:08.786Z,1.20
2024-01-05T01:17:10.111Z,1.20
2024-01-05T01:18:12.028Z,1.00
2024-01-05T01:19:13.735Z,1.10
2024-01-05T01:20:15.362Z,1.53
2024-01-05T01:21:17.165Z,1.50
2024-01-05T01:22:18.536Z,1.50
2024-01-05T01:23:19.997Z,0.87
2024-01-05T01:24:21.560Z,1.27
2024-01-05T01:25:22.967Z,1.13
2024-01-05T01:26:24.573Z,1.20
2024-01-05T01:27:26.028Z,1.10
2024-01-05T01:28:29.544Z,1.27
2024-01-05T01:29:30.856Z,0.90
2024-01-05T01:30:32.377Z,0.90
2024-01-05T01:31:33.894Z,1.40
2024-01-05T01:32:38.004Z,0.90
2024-01-05T01:33:40.332Z,1.10
2024-01-05T01:34:42.612Z,1.10
2024-01-05T01:35:44.519Z,1.10
2024-01-05T01:36:46.263Z,1.20
2024-01-05T01:37:48.536Z,0.87
2024-01-05T01:38:51.573Z,1.10
2024-01-05T01:39:53.278Z,0.90
2024-01-05T01:40:56.485Z,1.17
2024-01-05T01:41:58.666Z,0.80
2024-01-05T01:43:00.222Z,0.93
2024-01-05T01:44:01.703Z,0.97
2024-01-05T01:45:03.856Z,0.90
2024-01-05T01:46:05.951Z,1.03
2024-01-05T01:47:07.762Z,1.17
2024-01-05T01:48:09.792Z,1.37
2024-01-05T01:49:11.736Z,1.20
2024-01-05T01:50:15.119Z,1.00
2024-01-05T01:51:16.759Z,1.00
2024-01-05T01:52:18.772Z,1.40
2024-01-05T01:53:21.669Z,1.10
2024-01-05T01:54:23.334Z,1.10
2024-01-05T01:55:24.977Z,1.20
2024-01-05T01:56:27.689Z,1.27
2024-01-05T01:57:32.990Z,1.10
2024-01-05T01:58:35.407Z,1.20
2024-01-05T01:59:37.999Z,1.43
2024-01-05T02:00:42.977Z,0.90
2024-01-05T02:01:44.568Z,1.00
2024-01-05T02:02:48.717Z,0.97
2024-01-05T02:03:50.455Z,1.50
2024-01-05T02:04:52.928Z,1.43
2024-01-05T02:05:55.209Z,1.20
2024-01-05T02:06:56.812Z,1.20
2024-01-05T02:07:58.115Z,1.10
2024-01-05T02:08:59.826Z,1.80
2024-01-05T02:10:01.164Z,0.93
2024-01-05T02:11:02.627Z,0.93
2024-01-05T02:12:04.780Z,1.50
2024-01-05T02:13:06.600Z,1.20
2024-01-05T02:14:08.086Z,1.27
2024-01-05T02:15:09.781Z,1.00
2024-01-05T02:16:31.492Z,1.27
2024-01-05T02:17:53.698Z,1.30
2024-01-05T02:18:56.340Z,1.07
2024-01-05T02:19:58.204Z,1.10
2024-01-05T02:21:11.811Z,1.20
2024-01-05T02:22:14.302Z,1.10
2024-01-05T02:23:25.033Z,1.37
2024-01-05T02:24:26.749Z,1.10
2024-01-05T02:25:28.364Z,1.10
2024-01-05T02:26:29.810Z,1.33
2024-01-05T02:27:31.276Z,0.83
2024-01-05T02:28:33.225Z,1.00
2024-01-05T02:29:34.581Z,0.93
2024-01-05T02:30:36.137Z,0.83
2024-01-05T02:31:37.635Z,0.90
2024-01-05T02:32:38.998Z,1.10
2024-01-05T02:33:40.981Z,1.23
2024-01-05T02:34:42.634Z,0.97
2024-01-05T02:35:44.170Z,1.17
2024-01-05T02:36:45.806Z,1.30
2024-01-05T02:37:47.473Z,0.93
2024-01-05T02:38:48.881Z,1.50
2024-01-05T02:39:50.204Z,1.10
2024-01-05T02:40:51.592Z,0.87
2024-01-05T02:41:52.941Z,0.90
2024-01-05T02:42:54.366Z,1.10
2024-01-05T02:43:55.673Z,1.20
2024-01-05T02:44:57.053Z,1.50
2024-01-05T02:45:58.573Z,0.93
2024-01-05T02:47:00.381Z,1.00
2024-01-05T02:48:02.517Z,1.00
2024-01-05T02:49:04.769Z,1.20
2024-01-05T02:50:06.764Z,1.20
2024-01-05T02:51:08.177Z,1.30
2024-01-05T02:52:09.708Z,1.07
2024-01-05T02:53:11.486Z,1.03
2024-01-05T02:54:13.031Z,0.90
2024-01-05T02:55:14.689Z,1.20
2024-01-05T02:56:23.842Z,0.90
2024-01-05T02:57:25.777Z,1.10
2024-01-05T02:58:27.435Z,1.17
2024-01-05T02:59:28.873Z,1.40
2024-01-05T03:00:30.266Z,1.00
2024-01-05T03:01:32.124Z,1.03
2024-01-05T03:02:33.756Z,1.00
2024-01-05T03:03:35.147Z,1.00
2024-01-05T03:04:36.938Z,1.30
2024-01-05T03:05:39.375Z,1.20
2024-01-05T03:06:41.527Z,1.27
2024-01-05T03:07:43.375Z,1.50
2024-01-05T03:08:45.394Z,1.17
2024-01-05T03:09:46.824Z,1.10
2024-01-05T03:10:48.469Z,1.20
2024-01-05T03:11:49.824Z,1.20
2024-01-05T03:12:52.962Z,1.00
2024-01-05T03:13:54.892Z,1.10
2024-01-05T03:14:57.239Z,1.27
2024-01-05T03:16:00.196Z,1.10
2024-01-05T03:17:03.480Z,1.00
2024-01-05T03:18:05.237Z,1.10
2024-01-05T03:19:06.840Z,1.17
2024-01-05T03:20:10.523Z,1.17
2024-01-05T03:21:12.371Z,1.10
2024-01-05T03:22:14.145Z,1.60
2024-01-05T03:23:16.266Z,1.20
2024-01-05T03:24:18.197Z,1.00
2024-01-05T03:25:19.647Z,1.03
2024-01-05T03:26:22.914Z,1.10
2024-01-05T03:27:24.563Z,1.93
2024-01-05T03:28:25.911Z,1.00
2024-01-05T03:29:27.724Z,1.33
2024-01-05T03:30:29.079Z,1.07
2024-01-05T03:31:30.832Z,1.70
2024-01-05T03:32:32.358Z,0.90
2024-01-05T03:33:34.223Z,0.90
2024-01-05T03:34:35.818Z,1.37
2024-01-05T03:35:38.186Z,1.10
2024-01-05T03:36:40.336Z,1.30
2024-01-05T03:37:41.794Z,1.10
2024-01-05T03:38:44.074Z,1.30
2024-01-05T03:39:45.474Z,1.00
2024-01-05T03:40:46.793Z,1.40
2024-01-05T03:41:48.457Z,0.90
2024-01-05T03:42:50.443Z,1.03
2024-01-05T03:43:52.032Z,0.97
2024-01-05T03:44:53.677Z,1.20
2024-01-05T03:45:55.191Z,1.67
2024-01-05T03:46:56.719Z,1.10
2024-01-05T03:47:58.566Z,1.37
2024-01-05T03:49:00.275Z,1.20
2024-01-05T03:50:02.184Z,1.37
2024-01-05T03:51:04.856Z,1.10
2024-01-05T03:52:06.316Z,1.30
2024-01-05T03:53:07.831Z,1.90
2024-01-05T03:54:09.537Z,1.00
2024-01-05T03:55:10.924Z,1.20
2024-01-05T03:56:12.430Z,1.27
2024-01-05T03:57:13.942Z,1.30
2024-01-05T03:58:16.016Z,1.40
2024-01-05T03:59:17.420Z,1.10
2024-01-05T04:00:19.039Z,1.30
2024-01-05T04:01:20.440Z,1.23
2024-01-05T04:02:22.017Z,1.40
2024-01-05T04:03:23.439Z,1.00
2024-01-05T04:04:25.552Z,1.00
2024-01-05T04:05:27.335Z,1.20
2024-01-05T04:06:29.062Z,1.33
2024-01-05T04:07:30.601Z,1.10
2024-01-05T04:08:32.426Z,1.00
2024-01-05T04:09:34.216Z,1.37
2024-01-05T04:10:36.400Z,1.30
2024-01-05T04:11:38.583Z,1.20
2024-01-05T04:12:40.214Z,1.03
2024-01-05T04:13:41.640Z,1.03
2024-01-05T04:14:43.261Z,1.07
2024-01-05T04:15:44.779Z,1.13
2024-01-05T04:16:46.343Z,1.03
2024-01-05T04:17:48.570Z,1.33
2024-01-05T04:18:50.194Z,1.97
2024-01-05T04:19:51.647Z,1.20
2024-01-05T04:20:53.075Z,1.27
2024-01-05T04:21:54.396Z,1.20
2024-01-05T04:22:56.059Z,1.20
2024-01-05T04:23:58.508Z,1.10
2024-01-05T04:25:00.410Z,2.10
2024-01-05T04:26:01.766Z,1.03
2024-01-05T04:27:03.307Z,1.50
2024-01-05T04:28:05.363Z,1.43
2024-01-05T04:29:06.664Z,1.33
2024-01-05T04:30:08.421Z,1.43
2024-01-05T04:31:10.642Z,1.43
2024-01-05T04:32:12.069Z,1.27
2024-01-05T04:33:13.609Z,1.20
2024-01-05T04:34:15.153Z,1.10
2024-01-05T04:35:16.576Z,1.30
2024-01-05T04:36:19.063Z,1.30
2024-01-05T04:37:20.574Z,1.80
2024-01-05T04:38:21.890Z,1.53
2024-01-05T04:39:23.910Z,1.30
2024-01-05T04:40:25.956Z,1.50
2024-01-05T04:41:27.885Z,1.30
2024-01-05T04:42:29.700Z,1.27
2024-01-05T04:43:31.237Z,1.23
2024-01-05T04:44:32.627Z,1.50
2024-01-05T04:45:36.761Z,1.67
2024-01-05T04:46:38.865Z,1.47
2024-01-05T04:47:40.837Z,1.50
2024-01-05T04:48:42.666Z,1.30
2024-01-05T04:49:44.234Z,1.50
2024-01-05T04:50:46.623Z,1.47
2024-01-05T04:51:48.292Z,1.60
2024-01-05T04:52:49.712Z,1.43
2024-01-05T04:53:51.041Z,1.17
2024-01-05T04:54:52.367Z,1.20
2024-01-05T04:55:53.844Z,1.30
2024-01-05T04:56:55.341Z,1.30
2024-01-05T04:57:57.758Z,1.30
2024-01-05T04:58:59.110Z,1.37
2024-01-05T05:00:00.659Z,1.50
2024-01-05T05:01:02.302Z,1.90
2024-01-05T05:02:03.925Z,1.53
2024-01-05T05:03:06.257Z,1.23
2024-01-05T05:04:08.011Z,1.30
2024-01-05T05:05:09.623Z,1.40
2024-01-05T05:06:11.699Z,1.30
2024-01-05T05:07:13.229Z,1.40
2024-01-05T05:08:16.209Z,1.37
2024-01-05T05:09:18.226Z,1.83
2024-01-05T05:10:19.804Z,1.40
2024-01-05T05:11:21.446Z,1.90
2024-01-05T05:12:23.042Z,1.50
2024-01-05T05:13:24.557Z,2.07
2024-01-05T05:14:25.899Z,1.47
2024-01-05T05:15:27.291Z,1.70
2024-01-05T05:16:28.823Z,1.33
2024-01-05T05:17:30.215Z,1.40
2024-01-05T05:18:31.754Z,1.53
2024-01-05T05:19:33.431Z,1.40
2024-01-05T05:20:34.899Z,1.10
2024-01-05T05:21:36.834Z,1.60
2024-01-05T05:22:38.638Z,1.60
2024-01-05T05:23:40.255Z,1.60
2024-01-05T05:24:41.884Z,1.77
2024-01-05T05:25:43.613Z,2.10
2024-01-05T05:26:45.335Z,1.83
2024-01-05T05:27:46.765Z,1.70
2024-01-05T05:28:48.353Z,1.50
2024-01-05T05:29:49.672Z,1.50
2024-01-05T05:30:51.814Z,1.60
2024-01-05T05:31:53.329Z,1.43
2024-01-05T05:32:55.304Z,1.37
2024-01-05T05:33:56.833Z,1.53
2024-01-05T05:34:58.582Z,1.50
2024-01-05T05:35:59.955Z,1.40
2024-01-05T05:37:01.273Z,1.50
2024-01-05T05:38:05.617Z,1.53
2024-01-05T05:39:06.908Z,1.67
2024-01-05T05:40:10.781Z,2.00
2024-01-05T05:41:12.027Z,2.00
2024-01-05T05:42:13.336Z,1.60
2024-01-05T05:43:15.631Z,1.47
2024-01-05T05:44:17.004Z,1.43
2024-01-05T05:45:18.362Z,1.50
2024-01-05T05:46:20.128Z,1.50
2024-01-05T05:47:21.701Z,1.80
2024-01-05T05:48:24.071Z,1.33
2024-01-05T05:49:25.555Z,1.87
2024-01-05T05:50:26.887Z,1.40
2024-01-05T05:51:28.253Z,1.50
2024-01-05T05:52:30.983Z,1.60
2024-01-05T05:53:32.578Z,1.80
2024-01-05T05:54:34.296Z,1.70
2024-01-05T05:55:35.812Z,2.17
2024-01-05T05:56:37.563Z,1.50
2024-01-05T05:57:42.135Z,1.40
2024-01-05T05:58:43.762Z,1.57
2024-01-05T05:59:45.064Z,1.70
2024-01-05T06:00:47.103Z,1.73
2024-01-05T06:01:48.571Z,1.70
2024-01-05T06:02:49.886Z,1.30
2024-01-05T06:03:51.593Z,1.53
2024-01-05T06:04:53.207Z,1.80
2024-01-05T06:05:54.646Z,1.47
2024-01-05T06:06:56.050Z,1.40
2024-01-05T06:07:57.508Z,1.50
2024-01-05T06:08:58.878Z,1.50
2024-01-05T06:10:00.353Z,1.90
2024-01-05T06:11:01.678Z,2.00
2024-01-05T06:12:03.760Z,1.60
2024-01-05T06:13:05.237Z,2.23
2024-01-05T06:14:06.865Z,1.60
2024-01-05T06:15:08.790Z,1.70
2024-01-05T06:16:14.092Z,1.83
2024-01-05T06:17:16.135Z,1.60
2024-01-05T06:18:17.511Z,1.70
2024-01-05T06:19:19.025Z,1.60
2024-01-05T06:20:20.702Z,1.87
2024-01-05T06:21:22.002Z,1.60
2024-01-05T06:22:23.752Z,1.70
2024-01-05T06:23:25.074Z,1.53
2024-01-05T06:24:27.980Z,1.47
2024-01-05T06:25:29.349Z,1.50
2024-01-05T06:26:32.150Z,1.67
2024-01-05T06:27:38.876Z,1.60
2024-01-05T06:28:40.883Z,2.03
2024-01-05T06:29:42.391Z,1.87
2024-01-05T06:30:44.368Z,1.70
2024-01-05T06:31:46.137Z,1.93
2024-01-05T06:32:47.750Z,1.60
2024-01-05T06:33:49.721Z,1.90
2024-01-05T06:34:52.121Z,2.13
2024-01-05T06:35:53.801Z,1.53
2024-01-05T06:36:55.135Z,1.80
2024-01-05T06:37:56.461Z,1.50
2024-01-05T06:38:57.777Z,1.57
2024-01-05T06:39:59.128Z,1.60
2024-01-05T06:41:00.501Z,1.40
2024-01-05T06:42:01.795Z,1.73
2024-01-05T06:43:03.321Z,1.30
2024-01-05T06:44:05.689Z,1.80
2024-01-05T06:45:07.662Z,2.10
2024-01-05T06:46:10.664Z,1.70
2024-01-05T06:47:12.315Z,1.43
2024-01-05T06:48:13.856Z,1.70
2024-01-05T06:49:15.675Z,1.67
2024-01-05T06:50:17.925Z,1.53
2024-01-05T06:51:20.143Z,2.20
2024-01-05T06:52:22.087Z,1.57
2024-01-05T06:53:23.669Z,2.00
2024-01-05T06:54:25.230Z,1.70
2024-01-05T06:55:26.519Z,1.80
2024-01-05T06:56:32.901Z,2.33
2024-01-05T06:57:36.829Z,1.47
2024-01-05T06:58:38.863Z,1.50
2024-01-05T06:59:40.503Z,1.50
2024-01-05T07:00:41.890Z,2.03
2024-01-05T07:01:43.352Z,1.80
2024-01-05T07:02:45.121Z,1.60
2024-01-05T07:03:46.580Z,1.87
2024-01-05T07:04:47.973Z,1.73
2024-01-05T07:05:50.060Z,1.37
2024-01-05T07:06:51.466Z,1.80
2024-01-05T07:07:53.613Z,1.47
2024-01-05T07:08:55.315Z,1.47
2024-01-05T07:09:56.771Z,1.87
2024-01-05T07:10:58.534Z,1.73
2024-01-05T07:12:00.859Z,1.53
2024-01-05T07:13:02.209Z,1.60
2024-01-05T07:14:03.635Z,1.77
2024-01-05T07:15:06.095Z,1.70
2024-01-05T07:16:19.840Z,1.90
2024-01-05T07:17:21.497Z,2.03
2024-01-05T07:18:22.892Z,1.50
2024-01-05T07:19:24.362Z,1.87
2024-01-05T07:20:25.705Z,2.10
2024-01-05T07:21:27.100Z,1.40
2024-01-05T07:22:28.396Z,1.90
2024-01-05T07:23:29.897Z,1.60
2024-01-05T07:24:31.243Z,1.80
2024-01-05T07:25:33.272Z,1.57
2024-01-05T07:26:34.582Z,1.53
2024-01-05T07:27:36.804Z,1.77
2024-01-05T07:28:41.414Z,1.83
2024-01-05T07:29:42.684Z,2.37
2024-01-05T07:30:44.639Z,1.60
2024-01-05T07:32:06.110Z,2.00
2024-01-05T07:33:08.241Z,1.63
2024-01-05T07:34:10.118Z,1.60
2024-01-05T07:35:12.108Z,1.90
2024-01-05T07:36:13.753Z,2.00
2024-01-05T07:37:15.175Z,2.20
2024-01-05T07:38:17.945Z,2.20
2024-01-05T07:39:19.604Z,2.03
2024-01-05T07:40:21.034Z,1.90
2024-01-05T07:41:22.366Z,1.63
2024-01-05T07:42:23.737Z,1.77
2024-01-05T07:43:26.562Z,1.57
2024-01-05T07:44:27.940Z,1.90
2024-01-05T07:45:29.316Z,1.70
2024-01-05T07:46:42.084Z,1.80
2024-01-05T07:47:43.666Z,1.90
2024-01-05T07:48:45.709Z,1.40
2024-01-05T07:49:47.586Z,1.70
2024-01-05T07:50:49.420Z,1.80
2024-01-05T07:51:50.908Z,1.40
2024-01-05T07:52:52.481Z,2.10
2024-01-05T07:53:54.076Z,1.70
2024-01-05T07:54:55.352Z,2.13
2024-01-05T07:56:00.091Z,1.67
2024-01-05T07:57:01.674Z,1.57
2024-01-05T07:58:03.661Z,1.63
2024-01-05T07:59:05.552Z,1.60
2024-01-05T08:00:08.373Z,1.80
2024-01-05T08:01:18.572Z,1.63
2024-01-05T08:02:20.578Z,1.77
2024-01-05T08:03:25.061Z,1.30
2024-01-05T08:04:26.533Z,1.40
2024-01-05T08:05:27.845Z,1.40
2024-01-05T08:06:29.311Z,1.50
2024-01-05T08:07:30.644Z,1.90
2024-01-05T08:08:32.357Z,1.53
2024-01-05T08:09:33.770Z,1.57
2024-01-05T08:10:35.139Z,2.10
2024-01-05T08:11:36.420Z,2.07
2024-01-05T08:12:37.761Z,1.40
2024-01-05T08:13:40.127Z,1.60
2024-01-05T08:14:41.393Z,1.43
2024-01-05T08:15:42.836Z,1.60
2024-01-05T08:16:46.951Z,1.80
2024-01-05T08:17:48.448Z,1.37
2024-01-05T08:18:50.017Z,1.27
2024-01-05T08:19:51.590Z,2.10
2024-01-05T08:20:52.903Z,1.70
2024-01-05T08:21:54.228Z,1.40
2024-01-05T08:22:55.602Z,1.30
2024-01-05T08:23:57.463Z,2.43
2024-01-05T08:24:58.899Z,1.80
2024-01-05T08:26:00.556Z,1.87
2024-01-05T08:27:01.899Z,1.30
2024-01-05T08:28:03.957Z,1.83
2024-01-05T08:29:05.380Z,2.10
2024-01-05T08:30:11.752Z,1.40
2024-01-05T08:31:13.589Z,1.40
2024-01-05T08:32:14.957Z,1.67
2024-01-05T08:33:17.250Z,2.33
2024-01-05T08:34:18.939Z,2.13
2024-01-05T08:35:21.810Z,2.00
2024-01-05T08:36:23.305Z,1.57
2024-01-05T08:37:24.643Z,1.70
2024-01-05T08:38:25.992Z,2.00
2024-01-05T08:39:27.584Z,1.60
2024-01-05T08:40:29.604Z,1.70
2024-01-05T08:41:30.909Z,1.70
2024-01-05T08:42:32.205Z,1.70
2024-01-05T08:43:37.134Z,1.50
2024-01-05T08:44:40.030Z,1.70
2024-01-05T08:45:41.865Z,2.33
2024-01-05T08:46:51.152Z,1.87
2024-01-05T08:47:54.291Z,2.00
2024-01-05T08:48:55.980Z,1.40
2024-01-05T08:49:57.887Z,1.80
2024-01-05T08:50:59.534Z,1.70
2024-01-05T08:52:01.349Z,1.87
2024-01-05T08:53:03.351Z,2.03
2024-01-05T08:54:05.745Z,1.47
2024-01-05T08:55:07.835Z,1.60
2024-01-05T08:56:09.305Z,1.40
2024-01-05T08:57:12.444Z,1.97
2024-01-05T08:58:14.016Z,1.80
2024-01-05T08:59:15.491Z,1.53
2024-01-05T09:00:17.255Z,1.70
2024-01-05T09:01:23.264Z,2.03
2024-01-05T09:02:25.031Z,1.30
2024-01-05T09:03:26.432Z,1.90
2024-01-05T09:04:27.792Z,1.40
2024-01-05T09:05:29.933Z,2.03
2024-01-05T09:06:33.940Z,1.70
2024-01-05T09:07:39.117Z,1.83
2024-01-05T09:08:41.516Z,2.03
2024-01-05T09:09:42.896Z,1.70
2024-01-05T09:10:44.656Z,1.73
2024-01-05T09:11:46.046Z,1.47
2024-01-05T09:12:47.616Z,1.60
2024-01-05T09:13:49.261Z,1.57
2024-01-05T09:14:50.561Z,1.63
2024-01-05T09:15:51.969Z,1.40
2024-01-05T09:16:53.281Z,1.60
2024-01-05T09:17:55.201Z,2.20
2024-01-05T09:18:57.103Z,2.07
2024-01-05T09:19:58.657Z,2.10
2024-01-05T09:21:00.248Z,2.50
2024-01-05T09:22:03.111Z,1.87
2024-01-05T09:23:04.690Z,1.77
2024-01-05T09:24:06.416Z,1.50
2024-01-05T09:25:09.272Z,1.57
2024-01-05T09:26:17.059Z,1.60
2024-01-05T09:27:18.448Z,1.77
2024-01-05T09:28:19.783Z,1.70
2024-01-05T09:29:21.095Z,2.00
2024-01-05T09:30:22.827Z,2.40
2024-01-05T09:31:26.028Z,2.17
2024-01-05T09:32:27.460Z,1.80
2024-01-05T09:33:29.359Z,1.83
2024-01-05T09:34:31.612Z,1.53
2024-01-05T09:35:33.499Z,1.90
2024-01-05T09:36:55.566Z,2.17
2024-01-05T09:38:17.041Z,2.07
2024-01-05T09:39:38.369Z,1.73
2024-01-05T09:41:00.027Z,1.40
2024-01-05T09:42:21.948Z,1.73
2024-01-05T09:43:44.989Z,1.90
2024-01-05T09:45:11.263Z,2.07
2024-01-05T09:46:33.874Z,1.73
2024-01-05T09:47:59.263Z,1.73
2024-01-05T09:49:22.281Z,2.00
2024-01-05T09:50:46.262Z,1.80
2024-01-05T09:52:08.016Z,2.27
2024-01-05T09:53:29.774Z,1.70
2024-01-05T09:54:51.942Z,1.93
2024-01-05T09:56:15.364Z,1.87
2024-01-05T09:57:38.517Z,2.13
2024-01-05T09:59:00.397Z,1.83
2024-01-05T10:00:22.113Z,1.93
2024-01-05T10:01:44.082Z,1.70
2024-01-05T10:03:11.242Z,1.83
2024-01-05T10:04:34.720Z,2.10
2024-01-05T10:05:56.020Z,1.77
2024-01-05T10:07:17.501Z,1.80
2024-01-05T10:08:38.906Z,2.03
2024-01-05T10:10:00.128Z,2.03
2024-01-05T10:11:38.344Z,1.87
2024-01-05T10:13:06.369Z,2.20
2024-01-05T10:14:28.455Z,2.47
2024-01-05T10:15:57.636Z,2.10
2024-01-05T10:17:19.043Z,1.63
2024-01-05T10:18:40.359Z,2.27
2024-01-05T10:20:13.308Z,1.77
2024-01-05T10:21:34.531Z,1.93
2024-01-05T10:23:04.603Z,1.90
2024-01-05T10:24:29.706Z,2.10
2024-01-05T10:25:52.737Z,1.87
2024-01-05T10:27:15.377Z,1.90
2024-01-05T10:28:39.029Z,2.00
2024-01-05T10:30:00.534Z,2.10
2024-01-05T10:31:22.161Z,2.37
2024-01-05T10:32:43.479Z,1.93
2024-01-05T10:34:04.885Z,2.30
2024-01-05T10:35:26.166Z,2.43
2024-01-05T10:36:48.982Z,2.00
2024-01-05T10:38:12.521Z,2.03
2024-01-05T10:39:34.096Z,2.03
2024-01-05T10:41:06.074Z,2.40
2024-01-05T10:42:30.226Z,2.23
2024-01-05T10:43:52.009Z,2.10
2024-01-05T10:45:14.145Z,2.00
2024-01-05T10:46:36.451Z,1.87
2024-01-05T10:47:58.766Z,2.00
2024-01-05T10:49:20.679Z,2.13
2024-01-05T10:50:45.571Z,1.90
2024-01-05T10:52:08.190Z,2.07
2024-01-05T10:53:30.160Z,1.90
2024-01-05T10:54:53.234Z,2.20
2024-01-05T10:56:16.121Z,1.67
2024-01-05T10:57:38.537Z,2.07
2024-01-05T10:58:59.964Z,1.70
2024-01-05T11:00:26.161Z,2.10
2024-01-05T11:01:49.265Z,1.77
2024-01-05T11:03:13.716Z,1.97
2024-01-05T11:06:05.253Z,2.00
2024-01-05T11:07:32.088Z,1.60
2024-01-05T11:08:58.018Z,1.63
2024-01-05T11:10:43.451Z,1.60
2024-01-05T11:12:33.146Z,1.93
2024-01-05T11:14:03.380Z,1.80
2024-01-05T11:15:58.325Z,2.30
2024-01-05T11:17:51.701Z,1.87
2024-01-05T11:19:22.080Z,2.13
2024-01-05T11:21:06.912Z,1.87
2024-01-05T11:22:38.839Z,1.73
2024-01-05T11:24:00.427Z,1.40
2024-01-05T11:25:22.374Z,1.77
2024-01-05T11:26:43.845Z,1.80
2024-01-05T11:28:08.158Z,2.17
2024-01-05T11:29:49.092Z,1.80
2024-01-05T11:31:10.864Z,1.60
2024-01-05T11:32:37.525Z,1.63
2024-01-05T11:34:00.228Z,1.80
2024-01-05T11:35:25.020Z,1.80
2024-01-05T11:36:49.361Z,1.70
2024-01-05T11:38:26.262Z,1.53
2024-01-05T11:39:49.571Z,2.13
2024-01-05T11:41:20.922Z,1.90
2024-01-05T11:42:45.536Z,1.77
2024-01-05T11:44:36.195Z,1.70
2024-01-05T11:45:58.090Z,1.50
2024-01-05T11:47:41.477Z,1.63
2024-01-05T11:49:03.413Z,1.63
2024-01-05T11:50:32.308Z,2.13
2024-01-05T11:51:53.939Z,2.77
2024-01-05T11:53:24.745Z,1.70
2024-01-05T11:54:46.221Z,1.40
2024-01-05T11:56:09.592Z,1.50
2024-01-05T11:57:31.203Z,1.70
2024-01-05T11:58:52.833Z,1.80
2024-01-05T12:00:14.682Z,2.53
2024-01-05T12:01:36.093Z,2.53
2024-01-05T12:03:04.766Z,2.37
2024-01-05T12:04:26.454Z,1.63
2024-01-05T12:05:51.487Z,1.60
2024-01-05T12:07:20.471Z,1.73
2024-01-05T12:08:43.146Z,1.50
2024-01-05T12:10:04.738Z,1.50
2024-01-05T12:11:26.077Z,1.67
2024-01-05T12:12:52.169Z,1.47
2024-01-05T12:14:25.428Z,1.40
2024-01-05T12:15:59.092Z,1.47
2024-01-05T12:17:23.395Z,1.60
2024-01-05T12:18:50.229Z,1.50
2024-01-05T12:20:12.750Z,1.47
2024-01-05T12:21:34.714Z,1.60
2024-01-05T12:22:56.291Z,2.50
2024-01-05T12:24:17.631Z,2.00
2024-01-05T12:25:40.872Z,1.93
2024-01-05T12:27:02.475Z,1.93
2024-01-05T12:28:23.765Z,1.80
2024-01-05T12:29:45.103Z,1.40
2024-01-05T12:31:11.575Z,1.47
2024-01-05T12:32:37.082Z,1.73
2024-01-05T12:33:59.791Z,1.80
2024-01-05T12:35:21.434Z,1.97
2024-01-05T12:36:44.501Z,1.30
2024-01-05T12:38:06.613Z,1.50
2024-01-05T12:39:28.467Z,1.60
2024-01-05T12:40:50.039Z,1.33
2024-01-05T12:42:11.336Z,1.90
2024-01-05T12:43:33.613Z,2.03
2024-01-05T12:44:55.095Z,2.27
2024-01-05T12:46:17.271Z,3.00
2024-01-05T12:47:38.621Z,1.93
2024-01-05T12:49:00.124Z,1.97
2024-01-05T12:50:29.041Z,3.73
2024-01-05T12:51:52.136Z,2.57
2024-01-05T12:53:18.328Z,1.70
2024-01-05T12:54:43.385Z,2.60
2024-01-05T12:56:11.446Z,2.90
2024-01-05T12:57:33.377Z,2.50
2024-01-05T12:58:55.034Z,2.20
2024-01-05T13:00:16.688Z,2.37
2024-01-05T13:01:38.121Z,2.10
2024-01-05T13:02:59.705Z,2.20
2024-01-05T13:04:36.046Z,1.70
2024-01-05T13:06:10.596Z,2.00
2024-01-05T13:07:32.226Z,1.97
2024-01-05T13:08:53.953Z,2.37
2024-01-05T13:10:15.188Z,1.60
2024-01-05T13:11:36.481Z,1.90
2024-01-05T13:12:58.083Z,1.87
2024-01-05T13:14:20.362Z,2.00
2024-01-05T13:15:41.897Z,2.07
2024-01-05T13:17:03.336Z,3.00
2024-01-05T13:18:25.335Z,2.13
2024-01-05T13:19:46.807Z,2.20
2024-01-05T13:21:08.492Z,2.20
2024-01-05T13:22:31.287Z,2.17
2024-01-05T13:23:56.485Z,2.00
2024-01-05T13:25:17.871Z,1.50
2024-01-05T13:26:39.275Z,1.90
2024-01-05T13:28:00.942Z,1.73
2024-01-05T13:29:22.180Z,2.10
2024-01-05T13:30:43.669Z,2.30
2024-01-05T13:32:05.468Z,1.93
2024-01-05T13:33:26.983Z,2.00
2024-01-05T13:34:48.456Z,1.50
2024-01-05T13:36:10.258Z,1.80
2024-01-05T13:37:32.019Z,1.87
2024-01-05T13:38:53.317Z,1.87
2024-01-05T13:40:14.780Z,1.93
2024-01-05T13:41:36.427Z,1.60
2024-01-05T13:42:58.343Z,1.70
2024-01-05T13:44:19.936Z,1.77
2024-01-05T13:45:41.246Z,1.83
2024-01-05T13:47:02.769Z,1.60
2024-01-05T13:48:24.524Z,1.60
2024-01-05T13:49:46.005Z,1.70
2024-01-05T13:51:07.615Z,1.70
2024-01-05T13:52:28.887Z,1.70
2024-01-05T13:53:50.453Z,1.60
2024-01-05T13:55:11.850Z,2.00
2024-01-05T13:56:33.525Z,1.80
2024-01-05T13:57:55.133Z,1.77
2024-01-05T13:59:16.378Z,1.57
2024-01-05T14:00:37.733Z,2.07
2024-01-05T14:01:59.260Z,1.70
2024-01-05T14:03:20.679Z,2.00
2024-01-05T14:04:42.439Z,1.90
2024-01-05T14:06:09.363Z,1.93
2024-01-05T14:07:30.935Z,1.93
2024-01-05T14:08:52.154Z,1.80
2024-01-05T14:10:13.773Z,2.10
2024-01-05T14:11:35.261Z,1.93
2024-01-05T14:12:59.047Z,1.77
2024-01-05T14:14:20.982Z,1.90
2024-01-05T14:15:42.569Z,1.63
2024-01-05T14:17:04.496Z,1.70
2024-01-05T14:18:25.969Z,1.70
2024-01-05T14:19:48.076Z,1.63
2024-01-05T14:21:09.961Z,1.57
2024-01-05T14:22:33.065Z,1.73
2024-01-05T14:23:54.799Z,1.83
2024-01-05T14:25:16.282Z,1.90
2024-01-05T14:26:38.476Z,2.00
2024-01-05T14:27:59.991Z,1.90
2024-01-05T14:29:21.558Z,2.40
2024-01-05T14:30:43.770Z,1.90
2024-01-05T14:32:05.541Z,1.70
2024-01-05T14:33:26.830Z,1.60
2024-01-05T14:34:48.513Z,1.80
2024-01-05T14:36:09.871Z,1.60
2024-01-05T14:37:31.225Z,1.57
2024-01-05T14:38:53.246Z,1.40
2024-01-05T14:40:14.789Z,1.80
2024-01-05T14:41:36.772Z,1.63
2024-01-05T14:42:58.111Z,1.60
2024-01-05T14:44:20.024Z,1.70
2024-01-05T14:45:42.677Z,2.27
2024-01-05T14:47:04.823Z,1.60
2024-01-05T14:48:27.833Z,2.03
2024-01-05T14:49:51.136Z,1.50
2024-01-05T14:51:12.811Z,1.70
2024-01-05T14:52:35.309Z,1.70
2024-01-05T14:53:56.593Z,2.43
2024-01-05T14:55:18.233Z,1.83
2024-01-05T14:56:40.320Z,1.70
2024-01-05T14:58:03.096Z,1.90
2024-01-05T14:59:24.332Z,1.87
2024-01-05T15:00:45.729Z,1.47
2024-01-05T15:02:07.313Z,2.10
2024-01-05T15:03:29.359Z,1.60
2024-01-05T15:04:50.954Z,1.70
2024-01-05T15:06:12.444Z,1.93
2024-01-05T15:07:33.801Z,1.73
2024-01-05T15:08:56.126Z,1.60
2024-01-05T15:10:17.478Z,1.50
2024-01-05T15:11:38.739Z,1.60
2024-01-05T15:13:01.469Z,1.40
2024-01-05T15:14:22.684Z,1.50
2024-01-05T15:15:44.067Z,2.30
2024-01-05T15:17:05.435Z,1.73